createdAt,value
2018-11-25T00:01:37.303Z,4.52
2018-11-25T00:04:06.624Z,4.51
2018-11-25T00:06:35.505Z,4.44
2018-11-25T00:09:04.448Z,4.38
2018-11-25T00:11:34.274Z,4.50
2018-11-25T00:14:23.275Z,4.48
2018-11-25T00:16:51.913Z,4.71
2018-11-25T00:19:20.609Z,4.81
2018-11-25T00:21:49.265Z,4.70
2018-11-25T00:24:17.915Z,4.65
2018-11-25T00:26:46.604Z,4.67
2018-11-25T00:29:15.347Z,4.69
2018-11-25T00:31:44.280Z,4.60
2018-11-25T00:34:15.462Z,4.65
2018-11-25T00:36:44.633Z,4.60
2018-11-25T00:39:13.461Z,4.67
2018-11-25T00:41:42.381Z,4.64
2018-11-25T00:44:11.078Z,4.68
2018-11-25T00:46:39.863Z,4.71
2018-11-25T00:49:08.622Z,4.65
2018-11-25T00:51:58.044Z,4.61
2018-11-25T00:54:28.409Z,4.55
2018-11-25T00:56:58.045Z,4.65
2018-11-25T00:59:26.743Z,4.70
2018-11-25T01:01:55.441Z,4.48
2018-11-25T01:04:24.090Z,4.41
2018-11-25T01:06:52.856Z,4.25
2018-11-25T01:09:21.753Z,4.02
2018-11-25T01:11:51.630Z,3.90
2018-11-25T01:14:40.757Z,3.96
2018-11-25T01:17:09.443Z,3.92
2018-11-25T01:19:38.108Z,3.91
2018-11-25T01:22:06.793Z,3.97
2018-11-25T01:24:35.438Z,3.72
2018-11-25T01:27:04.309Z,3.51
2018-11-25T01:29:33.044Z,3.41
2018-11-25T01:32:02.030Z,3.42
2018-11-25T01:34:30.995Z,3.61
2018-11-25T01:37:19.738Z,3.51
2018-11-25T01:39:49.137Z,3.36
2018-11-25T01:42:18.035Z,3.20
2018-11-25T01:44:46.753Z,3.37
2018-11-25T01:47:15.453Z,3.10
2018-11-25T01:49:44.138Z,2.94
2018-11-25T01:52:12.815Z,2.86
2018-11-25T01:54:41.506Z,2.75
2018-11-25T01:59:44.818Z,2.58
2018-11-25T02:02:13.500Z,2.69
2018-11-25T02:04:43.139Z,2.73
2018-11-25T02:07:32.217Z,2.66
2018-11-25T02:10:01.351Z,2.78
2018-11-25T02:12:30.253Z,2.62
2018-11-25T02:14:59.180Z,2.51
2018-11-25T02:17:27.925Z,2.42
2018-11-25T02:19:56.660Z,2.44
2018-11-25T02:22:25.396Z,2.55
2018-11-25T02:24:54.342Z,2.60
2018-11-25T02:27:23.427Z,2.45
2018-11-25T02:29:53.601Z,2.46
2018-11-25T02:32:22.871Z,2.36
2018-11-25T02:34:51.621Z,2.23
2018-11-25T02:37:20.304Z,2.23
2018-11-25T02:40:11.696Z,2.24
2018-11-25T02:42:40.342Z,2.20
2018-11-25T02:45:28.889Z,2.22
2018-11-25T02:47:59.727Z,2.15
2018-11-25T02:50:29.438Z,2.09
2018-11-25T02:53:01.926Z,1.93
2018-11-25T02:55:30.560Z,1.81
2018-11-25T02:58:00.862Z,1.76
2018-11-25T03:00:29.775Z,1.69
2018-11-25T03:03:00.387Z,1.70
2018-11-25T03:05:48.666Z,1.58
2018-11-25T03:08:17.553Z,1.53
2018-11-25T03:10:46.211Z,1.56
2018-11-25T03:13:15.141Z,1.55
2018-11-25T03:15:43.876Z,1.71
2018-11-25T03:18:13.037Z,1.87
2018-11-25T03:20:43.116Z,1.88
2018-11-25T03:23:12.809Z,1.75
2018-11-25T03:25:41.487Z,1.70
2018-11-25T03:28:11.862Z,1.62
2018-11-25T03:30:40.453Z,1.62
2018-11-25T03:33:09.084Z,1.56
2018-11-25T03:35:37.775Z,1.62
2018-11-25T03:38:06.654Z,1.56
2018-11-25T03:40:35.437Z,1.52
2018-11-25T03:43:04.384Z,1.65
2018-11-25T03:45:33.268Z,1.63
2018-11-25T03:48:02.156Z,1.76
2018-11-25T03:50:31.010Z,1.87
2018-11-25T03:53:00.083Z,1.86
2018-11-25T03:55:48.273Z,1.66
2018-11-25T03:58:17.082Z,1.53
2018-11-25T04:01:24.471Z,1.43
2018-11-25T04:06:43.128Z,1.36
2018-11-25T04:09:12.296Z,1.36
2018-11-25T04:11:41.240Z,1.27
2018-11-25T04:14:10.127Z,1.23
2018-11-25T04:16:58.117Z,1.52
2018-11-25T04:19:26.761Z,1.40
2018-11-25T04:21:55.432Z,1.30
2018-11-25T04:24:24.118Z,1.29
2018-11-25T04:26:53.684Z,1.58
2018-11-25T04:29:42.899Z,1.42
2018-11-25T04:32:11.589Z,1.25
2018-11-25T04:34:40.278Z,1.12
2018-11-25T04:37:08.918Z,1.16
2018-11-25T04:39:37.592Z,1.09
2018-11-25T04:42:06.335Z,1.08
2018-11-25T04:44:35.042Z,1.21
2018-11-25T04:47:03.852Z,1.35
2018-11-25T04:49:32.500Z,1.13
2018-11-25T04:52:20.762Z,1.25
2018-11-25T04:54:51.611Z,1.32
2018-11-25T04:57:20.371Z,1.32
2018-11-25T04:59:49.138Z,1.17
2018-11-25T05:02:17.987Z,1.01
2018-11-25T05:04:46.765Z,0.95
2018-11-25T05:07:15.693Z,0.93
2018-11-25T05:09:44.550Z,0.90
2018-11-25T05:12:32.693Z,1.22
2018-11-25T05:15:02.997Z,1.10
2018-11-25T05:17:31.693Z,1.02
2018-11-25T05:20:00.593Z,0.95
2018-11-25T05:22:29.282Z,0.91
2018-11-25T05:24:57.925Z,0.92
2018-11-25T05:27:27.111Z,0.86
2018-11-25T05:29:55.766Z,0.84
2018-11-25T05:32:24.470Z,1.27
2018-11-25T05:34:53.211Z,1.61
2018-11-25T05:37:22.145Z,1.34
2018-11-25T05:39:51.055Z,1.45
2018-11-25T05:44:55.462Z,1.50
2018-11-25T05:47:24.225Z,1.24
2018-11-25T05:49:53.101Z,1.04
2018-11-25T05:52:22.485Z,0.90
2018-11-25T05:57:26.078Z,0.98
2018-11-25T05:59:54.908Z,0.89
2018-11-25T06:02:23.604Z,0.80
2018-11-25T06:04:52.279Z,0.78
2018-11-25T06:07:21.258Z,0.70
2018-11-25T06:10:10.123Z,0.66
2018-11-25T06:12:40.914Z,0.63
2018-11-25T06:15:28.879Z,0.58
2018-11-25T06:17:57.747Z,0.56
2018-11-25T06:20:26.598Z,0.72
2018-11-25T06:22:55.509Z,0.66
2018-11-25T06:25:24.265Z,0.64
2018-11-25T06:27:53.200Z,0.89
2018-11-25T06:30:22.103Z,1.08
2018-11-25T06:32:50.884Z,1.31
2018-11-25T06:35:39.578Z,1.31
2018-11-25T06:38:08.169Z,1.25
2018-11-25T06:40:36.855Z,1.27
2018-11-25T06:43:05.905Z,1.25
2018-11-25T06:45:35.346Z,1.38
2018-11-25T06:48:23.295Z,1.23
2018-11-25T06:50:53.666Z,1.05
2018-11-25T06:53:23.262Z,1.08
2018-11-25T06:55:51.952Z,1.34
2018-11-25T06:58:20.649Z,1.38
2018-11-25T07:00:49.364Z,1.42
2018-11-25T07:03:18.021Z,1.16
2018-11-25T07:05:46.705Z,1.31
2018-11-25T07:08:16.400Z,1.31
2018-11-25T07:10:46.635Z,1.38
2018-11-25T07:13:15.280Z,1.45
2018-11-25T07:15:43.981Z,1.58
2018-11-25T07:18:12.641Z,1.44
2018-11-25T07:20:41.282Z,1.62
2018-11-25T07:23:09.969Z,1.67
2018-11-25T07:28:29.195Z,1.72
2018-11-25T07:30:59.040Z,1.57
2018-11-25T07:33:27.830Z,1.47
2018-11-25T07:35:56.583Z,1.44
2018-11-25T07:38:25.337Z,1.43
2018-11-25T07:40:54.145Z,1.48
2018-11-25T07:43:22.841Z,1.72
2018-11-25T07:45:52.739Z,1.81
2018-11-25T07:51:15.939Z,2.12
2018-11-25T07:53:44.627Z,2.25
2018-11-25T07:56:13.271Z,2.31
2018-11-25T07:58:42.018Z,2.37
2018-11-25T08:01:10.867Z,2.40
2018-11-25T08:03:39.971Z,2.67
2018-11-25T08:06:29.183Z,2.67
2018-11-25T08:08:58.846Z,2.64
2018-11-25T08:11:27.888Z,2.53
2018-11-25T08:13:56.529Z,2.64
2018-11-25T08:16:25.409Z,2.71
2018-11-25T08:18:54.098Z,2.62
2018-11-25T08:21:23.032Z,2.61
2018-11-25T08:23:51.851Z,2.70
2018-11-25T08:26:20.930Z,2.92
2018-11-25T08:31:44.486Z,3.39
2018-11-25T08:34:13.386Z,3.74
2018-11-25T08:36:42.618Z,3.99
2018-11-25T08:39:30.354Z,4.12
2018-11-25T08:41:59.913Z,4.28
2018-11-25T08:44:48.503Z,4.45
2018-11-25T08:47:37.423Z,4.65
2018-11-25T08:50:27.235Z,4.74
2018-11-25T08:52:56.430Z,4.97
2018-11-25T08:55:26.152Z,5.09
2018-11-25T08:57:55.281Z,5.18
2018-11-25T09:00:24.931Z,5.29
2018-11-25T09:05:43.589Z,5.60
2018-11-25T09:08:12.872Z,5.70
2018-11-25T09:10:41.506Z,5.82
2018-11-25T09:13:10.270Z,5.96
2018-11-25T09:15:38.964Z,6.11
2018-11-25T09:18:07.862Z,6.18
2018-11-25T09:20:55.861Z,6.36
2018-11-25T09:23:24.588Z,6.48
2018-11-25T09:25:55.405Z,6.60
2018-11-25T09:28:24.929Z,6.78
2018-11-25T09:30:53.505Z,6.81
2018-11-25T09:33:22.145Z,6.97
2018-11-25T09:35:50.847Z,7.02
2018-11-25T09:38:19.497Z,7.04
2018-11-25T09:40:48.166Z,7.05
2018-11-25T09:43:16.853Z,7.14
2018-11-25T09:45:45.503Z,7.20
2018-11-25T09:48:14.189Z,7.43
2018-11-25T09:50:42.937Z,7.55
2018-11-25T09:53:31.979Z,7.66
2018-11-25T09:56:02.618Z,7.85
2018-11-25T09:58:31.559Z,8.07
2018-11-25T10:01:00.404Z,8.24
2018-11-25T10:03:29.352Z,8.34
2018-11-25T10:05:58.184Z,8.47
2018-11-25T10:08:27.076Z,8.51
2018-11-25T10:10:56.920Z,8.55
2018-11-25T10:16:19.857Z,8.96
2018-11-25T10:18:48.538Z,9.35
2018-11-25T10:21:17.232Z,9.35
2018-11-25T10:23:45.910Z,9.45
2018-11-25T10:26:14.663Z,9.44
2018-11-25T10:28:43.860Z,9.59
2018-11-25T10:34:06.815Z,9.94
2018-11-25T10:36:35.675Z,10.02
2018-11-25T10:39:05.139Z,10.08
2018-11-25T10:41:33.884Z,10.20
2018-11-25T10:44:02.794Z,10.29
2018-11-25T10:46:32.685Z,10.39
2018-11-25T10:49:40.268Z,10.56
2018-11-25T10:52:10.234Z,10.76
2018-11-25T10:54:39.061Z,10.84
2018-11-25T10:57:07.883Z,10.87
2018-11-25T10:59:36.777Z,11.08
2018-11-25T11:02:24.491Z,11.23
2018-11-25T11:05:12.352Z,11.13
2018-11-25T11:07:59.978Z,11.42
2018-11-25T11:10:28.766Z,11.55
2018-11-25T11:12:58.843Z,11.73
2018-11-25T11:15:28.553Z,11.70
2018-11-25T11:17:57.374Z,11.90
2018-11-25T11:20:26.035Z,12.02
2018-11-25T11:22:54.731Z,11.62
2018-11-25T11:25:23.603Z,11.77
2018-11-25T11:27:52.533Z,11.85
2018-11-25T11:30:21.428Z,12.03
2018-11-25T11:32:51.193Z,12.11
2018-11-25T11:38:48.381Z,11.72
2018-11-25T11:41:18.323Z,12.25
2018-11-25T11:43:47.061Z,12.31
2018-11-25T11:46:15.913Z,12.55
2018-11-25T11:48:44.649Z,12.69
2018-11-25T11:51:13.429Z,12.71
2018-11-25T11:53:42.260Z,12.19
2018-11-25T11:58:46.112Z,12.05
2018-11-25T12:04:09.765Z,11.98
2018-11-25T12:06:38.563Z,11.52
2018-11-25T12:09:09.829Z,11.42
2018-11-25T12:11:38.687Z,11.46
2018-11-25T12:14:07.441Z,11.60
2018-11-25T12:16:36.393Z,11.44
2018-11-25T12:19:06.347Z,11.27
2018-11-25T12:21:35.241Z,11.07
2018-11-25T12:24:23.563Z,10.89
2018-11-25T12:26:52.577Z,10.65
2018-11-25T12:29:41.159Z,10.56
2018-11-25T12:32:30.679Z,10.58
2018-11-25T12:35:19.292Z,10.60
2018-11-25T12:37:48.351Z,10.71
2018-11-25T12:40:36.410Z,10.52
2018-11-25T12:43:05.427Z,10.45
2018-11-25T12:45:34.307Z,10.58
2018-11-25T12:48:03.158Z,10.55
2018-11-25T12:50:32.060Z,10.62
2018-11-25T12:53:00.933Z,10.73
2018-11-25T12:55:29.882Z,10.75
2018-11-25T12:57:58.856Z,10.76
2018-11-25T13:00:47.685Z,10.91
2018-11-25T13:03:16.707Z,11.02
2018-11-25T13:05:46.592Z,11.01
2018-11-25T13:08:14.861Z,10.74
2018-11-25T13:10:44.577Z,10.77
2018-11-25T13:13:33.174Z,10.40
2018-11-25T13:16:01.952Z,10.20
2018-11-25T13:18:30.809Z,9.85
2018-11-25T13:20:59.723Z,9.40
2018-11-25T13:23:28.515Z,9.10
2018-11-25T13:25:57.413Z,8.90
2018-11-25T13:28:27.166Z,8.79
2018-11-25T13:30:55.973Z,8.76
2018-11-25T13:33:44.552Z,8.34
2018-11-25T13:36:14.176Z,7.93
2018-11-25T13:38:43.078Z,7.95
2018-11-25T13:41:12.229Z,7.69
2018-11-25T13:46:16.787Z,7.88
2018-11-25T13:48:45.667Z,7.82
2018-11-25T13:51:14.588Z,7.88
2018-11-25T13:53:43.450Z,7.70
2018-11-25T13:56:12.220Z,7.65
2018-11-25T13:58:41.502Z,7.63
2018-11-25T14:06:52.842Z,7.35
2018-11-25T14:09:22.215Z,7.35
2018-11-25T14:11:50.961Z,7.18
2018-11-25T14:14:19.822Z,7.09
2018-11-25T14:16:48.943Z,6.98
2018-11-25T14:19:37.684Z,6.88
2018-11-25T14:25:16.021Z,6.64
2018-11-25T14:27:45.061Z,6.41
2018-11-25T14:30:27.503Z,6.38
2018-11-25T14:32:56.180Z,6.30
2018-11-25T14:35:24.815Z,6.36
2018-11-25T14:37:53.497Z,6.24
2018-11-25T14:40:22.129Z,6.14
2018-11-25T14:42:51.380Z,6.01
2018-11-25T14:45:22.058Z,6.02
2018-11-25T14:47:50.726Z,5.92
2018-11-25T14:50:20.366Z,5.82
2018-11-25T14:52:52.839Z,5.89
2018-11-25T14:55:22.112Z,5.81
2018-11-25T14:58:11.251Z,5.73
2018-11-25T15:00:59.724Z,5.68
2018-11-25T15:03:30.379Z,5.65
2018-11-25T15:05:59.101Z,5.64
2018-11-25T15:08:28.160Z,5.60
2018-11-25T15:10:56.891Z,5.67
2018-11-25T15:13:25.683Z,5.62
2018-11-25T15:15:55.045Z,5.64
2018-11-25T15:18:43.096Z,5.53
2018-11-25T15:21:13.300Z,5.50
2018-11-25T15:23:42.310Z,5.55
2018-11-25T15:26:13.091Z,5.56
2018-11-25T15:28:41.745Z,5.50
2018-11-25T15:31:10.551Z,5.50
2018-11-25T15:33:39.426Z,5.45
2018-11-25T15:36:08.335Z,5.47
2018-11-25T15:38:37.125Z,5.45
2018-11-25T15:41:06.069Z,5.34
2018-11-25T15:43:34.859Z,5.26
2018-11-25T15:46:03.779Z,5.21
2018-11-25T15:48:33.157Z,5.22
2018-11-25T15:51:01.904Z,5.25
2018-11-25T15:53:30.553Z,5.20
2018-11-25T15:56:01.271Z,5.24
2018-11-25T15:58:29.931Z,5.20
2018-11-25T16:00:58.604Z,5.20
2018-11-25T16:03:27.269Z,5.14
2018-11-25T16:06:16.485Z,5.20
2018-11-25T16:08:45.300Z,5.21
2018-11-25T16:11:14.109Z,5.18
2018-11-25T16:13:42.884Z,5.18
2018-11-25T16:16:11.770Z,5.18
2018-11-25T16:18:40.667Z,5.16
2018-11-25T16:21:09.563Z,5.13
2018-11-25T16:23:38.455Z,5.16
2018-11-25T16:26:27.603Z,5.15
2018-11-25T16:28:58.747Z,5.12
2018-11-25T16:31:27.600Z,5.10
2018-11-25T16:33:56.398Z,5.08
2018-11-25T16:36:25.311Z,4.96
2018-11-25T16:38:54.122Z,5.10
2018-11-25T16:41:22.853Z,5.13
2018-11-25T16:43:51.736Z,5.09
2018-11-25T16:46:20.685Z,5.16
2018-11-25T16:48:49.416Z,5.10
2018-11-25T16:51:18.247Z,5.11
2018-11-25T16:53:47.148Z,5.11
2018-11-25T16:56:15.928Z,5.00
2018-11-25T16:58:44.722Z,5.10
2018-11-25T17:01:33.840Z,5.17
2018-11-25T17:04:24.367Z,5.09
2018-11-25T17:06:53.783Z,5.06
2018-11-25T17:09:22.521Z,5.11
2018-11-25T17:11:51.415Z,5.18
2018-11-25T17:14:20.343Z,5.11
2018-11-25T17:16:49.198Z,5.10
2018-11-25T17:19:37.653Z,5.09
2018-11-25T17:22:06.237Z,5.11
2018-11-25T17:24:35.159Z,5.08
2018-11-25T17:27:04.119Z,5.17
2018-11-25T17:29:33.700Z,5.18
2018-11-25T17:35:31.876Z,5.13
2018-11-25T17:38:00.852Z,5.08
2018-11-25T17:40:29.739Z,5.15
2018-11-25T17:42:58.629Z,5.17
2018-11-25T17:45:27.485Z,5.09
2018-11-25T17:47:56.371Z,5.13
2018-11-25T17:50:27.152Z,5.12
2018-11-25T17:59:13.629Z,5.21
2018-11-25T18:01:42.542Z,5.09
2018-11-25T18:04:11.287Z,5.07
2018-11-25T18:06:40.118Z,5.23
2018-11-25T18:09:12.086Z,5.03
2018-11-25T18:11:41.005Z,5.01
2018-11-25T18:14:10.528Z,5.14
2018-11-25T18:16:39.508Z,5.23
2018-11-25T18:19:35.811Z,5.12
2018-11-25T18:22:25.179Z,5.07
2018-11-25T18:24:54.106Z,5.08
2018-11-25T18:30:21.083Z,5.22
2018-11-25T18:32:50.940Z,5.01
2018-11-25T18:35:19.744Z,5.07
2018-11-25T18:37:48.588Z,5.13
2018-11-25T18:40:17.370Z,4.99
2018-11-25T18:45:21.742Z,5.16
2018-11-25T18:48:10.515Z,5.21
2018-11-25T18:51:19.890Z,5.29
2018-11-25T18:54:12.161Z,5.25
2018-11-25T18:56:59.944Z,5.16
2018-11-25T19:03:07.583Z,5.19
2018-11-25T19:06:00.672Z,5.22
2018-11-25T19:08:56.487Z,5.19
2018-11-25T19:11:45.444Z,5.17
2018-11-25T19:14:39.569Z,5.15
2018-11-25T19:17:30.708Z,5.05
2018-11-25T19:20:04.260Z,5.09
2018-11-25T19:22:52.918Z,5.20
2018-11-25T19:25:21.723Z,5.21
2018-11-25T19:27:50.798Z,5.16
2018-11-25T19:30:26.433Z,5.19
2018-11-25T19:32:51.469Z,5.24
2018-11-25T19:35:21.337Z,5.32
2018-11-25T19:37:50.904Z,5.22
2018-11-25T19:43:16.615Z,5.17
2018-11-25T19:46:26.022Z,5.16
2018-11-25T19:49:14.982Z,5.06
2018-11-25T19:55:43.749Z,5.10
2018-11-25T19:58:14.603Z,5.19
2018-11-25T20:01:04.362Z,5.06
2018-11-25T20:03:52.993Z,5.03
2018-11-25T20:07:04.024Z,5.06
2018-11-25T20:10:12.747Z,5.04
2018-11-25T20:13:05.292Z,4.99
2018-11-25T20:22:14.456Z,4.84
2018-11-25T20:25:02.416Z,4.83
2018-11-25T20:27:54.354Z,4.97
2018-11-25T20:30:46.332Z,4.96
2018-11-25T20:33:33.987Z,5.00
2018-11-25T20:36:02.650Z,4.95
2018-11-25T20:38:51.870Z,4.96
2018-11-25T20:41:20.529Z,4.93
2018-11-25T20:43:49.357Z,4.95
2018-11-25T20:46:37.009Z,4.93
2018-11-25T20:49:05.791Z,4.94
2018-11-25T20:51:53.565Z,4.78
2018-11-25T20:54:22.438Z,4.80
2018-11-25T20:56:51.367Z,4.81
2018-11-25T20:59:20.072Z,4.82
2018-11-25T21:01:56.498Z,4.78
2018-11-25T21:04:44.334Z,4.87
2018-11-25T21:07:12.993Z,4.70
2018-11-25T21:09:41.919Z,4.70
2018-11-25T21:12:10.764Z,4.69
2018-11-25T21:17:14.371Z,4.68
2018-11-25T21:19:43.166Z,4.64
2018-11-25T21:22:12.099Z,4.63
2018-11-25T21:24:41.060Z,4.53
2018-11-25T21:27:29.049Z,4.54
2018-11-25T21:29:57.883Z,4.47
2018-11-25T21:35:02.680Z,4.81
2018-11-25T21:37:31.363Z,4.78
2018-11-25T21:40:00.263Z,4.70
2018-11-25T21:42:29.600Z,4.65
2018-11-25T21:44:58.021Z,4.79
2018-11-25T21:47:26.812Z,4.70
2018-11-25T21:49:55.650Z,4.59
2018-11-25T21:52:24.560Z,4.68
2018-11-25T21:58:02.094Z,4.65
2018-11-25T22:00:31.874Z,4.66
2018-11-25T22:03:19.864Z,4.68
2018-11-25T22:05:48.698Z,4.66
2018-11-25T22:08:17.495Z,4.59
2018-11-25T22:10:46.445Z,4.57
2018-11-25T22:13:34.389Z,4.56
2018-11-25T22:16:05.373Z,4.55
2018-11-25T22:18:34.082Z,4.66
2018-11-25T22:21:02.874Z,4.47
2018-11-25T22:23:32.003Z,4.51
2018-11-25T22:26:00.757Z,4.63
2018-11-25T22:28:29.621Z,4.62
2018-11-25T22:41:57.567Z,4.58
2018-11-25T22:44:26.436Z,4.57
2018-11-25T22:49:29.979Z,4.65
2018-11-25T22:51:58.905Z,4.57
2018-11-25T22:54:27.835Z,4.54
2018-11-25T22:56:56.511Z,4.50
2018-11-25T22:59:26.558Z,4.44
2018-11-25T23:02:14.492Z,4.49
2018-11-25T23:05:21.669Z,4.66
2018-11-25T23:07:51.873Z,4.65
2018-11-25T23:10:41.014Z,4.52
2018-11-25T23:13:09.869Z,4.52
2018-11-25T23:15:38.719Z,4.42
2018-11-25T23:18:07.494Z,4.43
2018-11-25T23:26:59.555Z,4.46
2018-11-25T23:29:28.403Z,4.37
2018-11-25T23:31:57.240Z,4.48
2018-11-25T23:34:26.116Z,4.50
2018-11-25T23:37:15.395Z,4.46
2018-11-25T23:40:04.284Z,4.46
2018-11-25T23:42:53.522Z,4.46
2018-11-25T23:45:41.621Z,4.50
2018-11-25T23:48:10.451Z,4.46
2018-11-25T23:50:39.297Z,4.47
2018-11-25T23:53:08.228Z,4.43
2018-11-25T23:55:37.073Z,4.50
2018-11-25T23:58:06.005Z,4.44
